Time;durP1;ratioP1;P1;durP2;ratioP2;P2;SDS_P1;SDS_P2;PMS_P1;PMS_P2;Temp;Humidity;BMP_temperature;BMP_pressure;BME280_temperature;BME280_humidity;BME280_pressure;Samples;Min_cycle;Max_cycle;Signal;HPM_P1;HPM_P2
2021/04/15 00:01:09;;;;;;;36.13;23.38;;;8.50;93.70;;;;;;5096781;28;20038;-89
2021/04/15 00:03:35;;;;;;;39.75;24.20;;;8.50;93.80;;;;;;5096114;28;20038;-89
2021/04/15 00:06:08;;;;;;;41.72;25.50;;;8.50;93.80;;;;;;5096532;28;20032;-89
2021/04/15 00:08:34;;;;;;;33.80;22.08;;;8.50;94.00;;;;;;5095940;28;20035;-87
2021/04/15 00:11:00;;;;;;;37.65;24.80;;;8.50;93.90;;;;;;5095501;28;20032;-87
2021/04/15 00:13:28;;;;;;;36.20;22.55;;;8.50;94.00;;;;;;5095937;28;20040;-87
2021/04/15 00:15:55;;;;;;;36.70;21.95;;;8.50;93.90;;;;;;5096633;28;20362;-87
2021/04/15 00:18:21;;;;;;;36.45;21.55;;;8.50;93.90;;;;;;5096072;28;20050;-88
2021/04/15 00:20:47;;;;;;;35.03;20.73;;;8.60;93.90;;;;;;5113696;28;20032;-87
2021/04/15 00:23:13;;;;;;;31.55;20.45;;;8.60;93.70;;;;;;5096242;28;20385;-87
2021/04/15 00:25:39;;;;;;;29.42;19.45;;;8.70;93.80;;;;;;5096091;28;20035;-88
2021/04/15 00:28:05;;;;;;;30.33;19.67;;;8.70;93.80;;;;;;5096383;28;20046;-87
2021/04/15 00:30:31;;;;;;;35.47;22.45;;;8.70;93.80;;;;;;5113653;28;20032;-88
2021/04/15 00:32:57;;;;;;;33.78;22.38;;;8.80;93.80;;;;;;5095171;28;20092;-88
2021/04/15 00:35:23;;;;;;;32.83;21.42;;;8.80;93.90;;;;;;5096189;28;20051;-87
2021/04/15 00:37:49;;;;;;;33.85;22.15;;;8.80;93.90;;;;;;5096119;28;20032;-87
2021/04/15 00:40:17;;;;;;;34.70;22.85;;;8.80;93.80;;;;;;5096154;28;20118;-87
2021/04/15 00:42:42;;;;;;;36.97;23.40;;;8.80;93.80;;;;;;5095918;28;20104;-87
2021/04/15 00:45:14;;;;;;;35.15;22.73;;;8.80;93.90;;;;;;5096270;28;20489;-87
2021/04/15 00:47:44;;;;;;;35.88;23.08;;;8.80;93.80;;;;;;5095674;28;20397;-87
2021/04/15 00:50:17;;;;;;;;;;;8.80;93.90;;;;;;5096472;28;20485;-86
2021/04/15 00:52:50;;;;;;;36.05;22.02;;;8.70;94.80;;;;;;5095555;28;19907;-87
2021/04/15 00:55:22;;;;;;;33.45;21.67;;;8.70;94.20;;;;;;5113872;28;20081;-86
2021/04/15 00:57:51;;;;;;;32.00;21.05;;;8.70;94.10;;;;;;5095825;28;20518;-87
2021/04/15 01:00:27;;;;;;;34.75;22.40;;;8.60;94.10;;;;;;5095592;28;20066;-86
2021/04/15 01:02:54;;;;;;;41.33;26.58;;;8.70;94.20;;;;;;5095801;28;20085;-87
2021/04/15 01:05:23;;;;;;;40.55;24.02;;;8.70;94.80;;;;;;5113870;28;20359;-87
2021/04/15 01:07:50;;;;;;;39.28;24.63;;;8.70;94.40;;;;;;5095775;28;20031;-88
2021/04/15 01:10:17;;;;;;;41.95;25.35;;;8.70;94.40;;;;;;5095544;28;20062;-88
2021/04/15 01:12:42;;;;;;;42.65;23.35;;;8.70;94.40;;;;;;5096274;28;20027;-88
2021/04/15 01:15:36;;;;;;;45.33;26.38;;;8.70;94.30;;;;;;5098546;28;20024;-89
2021/04/15 01:18:12;;;;;;;45.47;26.63;;;8.70;94.30;;;;;;5099247;28;20028;-88
2021/04/15 01:21:00;;;;;;;45.47;28.20;;;8.70;94.40;;;;;;5099001;28;20024;-88
2021/04/15 01:23:54;;;;;;;39.22;25.80;;;8.70;94.50;;;;;;5098983;28;20067;-87
2021/04/15 01:26:39;;;;;;;45.67;26.50;;;8.70;94.40;;;;;;5100415;28;20032;-87
2021/04/15 01:29:28;;;;;;;47.30;26.15;;;8.70;94.40;;;;;;5099389;28;20031;-87
2021/04/15 01:32:21;;;;;;;44.90;27.92;;;8.70;94.40;;;;;;5099362;28;20028;-88
2021/04/15 01:35:10;;;;;;;52.08;30.98;;;8.70;94.50;;;;;;5099159;28;20052;-87
2021/04/15 01:37:51;;;;;;;54.20;31.10;;;8.60;94.50;;;;;;5099098;28;20031;-88
2021/04/15 01:40:30;;;;;;;54.40;30.38;;;8.60;94.80;;;;;;5098952;28;20027;-88
2021/04/15 01:43:13;;;;;;;55.58;32.35;;;8.60;94.80;;;;;;5118532;28;20431;-86
2021/04/15 01:45:40;;;;;;;55.90;31.95;;;8.60;94.90;;;;;;5099474;28;20029;-87
2021/04/15 01:48:16;;;;;;;56.60;30.88;;;8.60;94.80;;;;;;5099203;28;20027;-88
2021/04/15 01:51:06;;;;;;;49.72;29.10;;;8.60;95.00;;;;;;5117340;28;20039;-88
2021/04/15 01:53:44;;;;;;;47.55;28.15;;;8.60;94.80;;;;;;5099030;28;20038;-88
2021/04/15 01:56:50;;;;;;;50.05;28.73;;;8.60;94.80;;;;;;5099067;28;20072;-88
2021/04/15 01:59:43;;;;;;;44.42;28.17;;;8.60;94.90;;;;;;5098154;28;20039;-87
2021/04/15 02:02:27;;;;;;;46.58;28.08;;;8.60;94.80;;;;;;5081177;28;20032;-88
2021/04/15 02:05:08;;;;;;;43.28;27.15;;;8.70;94.80;;;;;;5078686;28;20597;-86
2021/04/15 02:07:38;;;;;;;44.30;28.08;;;8.60;94.90;;;;;;5078494;28;20119;-86
2021/04/15 02:10:08;;;;;;;51.33;29.95;;;8.70;94.80;;;;;;5082283;28;20032;-86
2021/04/15 02:12:38;;;;;;;48.53;28.25;;;8.60;95.00;;;;;;5098498;28;20028;-87
2021/04/15 02:15:23;;;;;;;48.17;28.85;;;8.70;94.90;;;;;;5098633;28;20103;-87
2021/04/15 02:17:50;;;;;;;46.33;27.35;;;8.70;94.80;;;;;;5098542;28;20504;-87
2021/04/15 02:20:22;;;;;;;42.28;26.70;;;8.70;94.80;;;;;;5098530;28;20039;-87
2021/04/15 02:23:07;;;;;;;52.15;29.70;;;8.70;94.70;;;;;;5098524;28;20115;-87
2021/04/15 02:25:44;;;;;;;44.47;25.38;;;8.70;95.00;;;;;;5115690;28;20062;-87
2021/04/15 02:28:17;;;;;;;42.35;25.90;;;8.70;94.80;;;;;;5116111;28;20037;-87
2021/04/15 02:30:48;;;;;;;40.33;24.48;;;8.70;94.80;;;;;;5115783;28;20503;-87
2021/04/15 02:33:13;;;;;;;41.53;25.02;;;8.70;94.70;;;;;;5097795;28;20035;-87
2021/04/15 02:36:02;;;;;;;45.95;26.45;;;8.70;94.70;;;;;;5097681;28;20139;-87
2021/04/15 02:38:51;;;;;;;44.65;26.80;;;8.70;94.70;;;;;;5096723;28;20031;-87
2021/04/15 02:41:28;;;;;;;41.72;24.75;;;8.80;94.70;;;;;;5097461;28;20031;-87
2021/04/15 02:44:06;;;;;;;41.92;24.13;;;8.80;94.70;;;;;;5097853;28;20402;-87
2021/04/15 02:46:54;;;;;;;47.20;27.02;;;8.80;94.70;;;;;;5097686;28;20054;-87
2021/04/15 02:49:24;;;;;;;44.33;24.85;;;8.80;94.70;;;;;;5097212;28;20038;-87
2021/04/15 02:51:56;;;;;;;43.22;24.88;;;8.80;94.70;;;;;;5097270;28;20027;-87
2021/04/15 02:54:25;;;;;;;40.80;23.90;;;8.80;94.60;;;;;;5115472;28;20136;-87
2021/04/15 02:57:31;;;;;;;39.03;24.15;;;8.80;94.60;;;;;;5097225;28;20028;-87
2021/04/15 03:00:20;;;;;;;40.67;23.60;;;8.80;94.60;;;;;;5103395;28;20032;-87
2021/04/15 03:02:58;;;;;;;41.22;24.33;;;8.80;94.50;;;;;;5115216;28;20110;-85
2021/04/15 03:05:26;;;;;;;40.83;24.58;;;8.90;94.50;;;;;;5095798;28;20036;-85
2021/04/15 03:07:58;;;;;;;39.50;23.98;;;8.80;94.50;;;;;;5096706;28;20126;-85
2021/04/15 03:10:29;;;;;;;47.03;28.75;;;8.80;94.50;;;;;;5096709;28;20069;-84
2021/04/15 03:13:13;;;;;;;39.63;25.08;;;8.90;94.50;;;;;;5097686;28;20032;-85
2021/04/15 03:15:57;;;;;;;41.03;24.98;;;8.80;94.50;;;;;;5114726;28;20030;-86
2021/04/15 03:18:39;;;;;;;40.70;24.90;;;8.80;94.50;;;;;;5096610;28;20473;-85
2021/04/15 03:21:20;;;;;;;40.30;24.23;;;8.80;94.50;;;;;;5096484;28;20123;-85
2021/04/15 03:23:59;;;;;;;40.97;24.88;;;8.80;94.50;;;;;;5096179;28;20074;-85
2021/04/15 03:26:47;;;;;;;43.40;24.17;;;8.90;94.60;;;;;;5096498;28;20081;-85
2021/04/15 03:29:21;;;;;;;39.85;23.50;;;8.90;94.70;;;;;;5096796;28;20047;-91
2021/04/15 03:32:13;;;;;;;42.20;25.63;;;8.90;94.50;;;;;;5099012;28;20455;-90
2021/04/15 03:34:46;;;;;;;41.97;25.20;;;8.90;94.60;;;;;;5068723;28;20481;-92
2021/04/15 03:37:17;;;;;;;41.72;24.42;;;8.90;94.50;;;;;;5114592;28;20028;-91
2021/04/15 03:39:46;;;;;;;46.17;24.58;;;8.90;94.50;;;;;;5097224;28;20501;-90
2021/04/15 03:42:28;;;;;;;50.17;28.30;;;9.00;94.50;;;;;;5114516;28;20039;-84
2021/04/15 03:45:00;;;;;;;44.38;25.77;;;9.00;94.70;;;;;;5096617;28;20558;-83
2021/04/15 03:47:31;;;;;;;41.53;23.95;;;9.00;94.70;;;;;;5114226;28;20039;-83
2021/04/15 03:50:10;;;;;;;39.40;24.15;;;9.00;94.60;;;;;;5096043;28;20123;-84
2021/04/15 03:52:42;;;;;;;38.67;24.88;;;9.10;94.60;;;;;;5096485;28;20035;-93
2021/04/15 03:55:29;;;;;;;38.97;24.52;;;9.10;94.50;;;;;;5097212;28;20534;-94
2021/04/15 03:58:03;;;;;;;39.03;24.15;;;9.20;94.40;;;;;;5097237;28;20425;-94
2021/04/15 04:00:35;;;;;;;45.33;25.55;;;9.20;94.40;;;;;;5097547;28;20032;-93
2021/04/15 04:03:15;;;;;;;40.25;25.60;;;9.20;94.40;;;;;;5097499;28;20498;-94
2021/04/15 04:05:46;;;;;;;44.60;24.38;;;9.30;94.40;;;;;;5117188;27;20038;-93
2021/04/15 04:08:21;;;;;;;39.80;23.48;;;9.30;94.30;;;;;;5097183;28;20036;-96
2021/04/15 04:10:52;;;;;;;38.30;22.63;;;9.30;94.40;;;;;;5097081;28;20042;-94
2021/04/15 04:13:32;;;;;;;36.85;22.33;;;9.30;94.50;;;;;;5096946;28;20115;-94
2021/04/15 04:16:11;;;;;;;34.95;21.60;;;9.40;94.30;;;;;;5097121;28;20481;-95
2021/04/15 04:18:49;;;;;;;42.95;25.60;;;9.40;94.20;;;;;;5097069;28;20035;-89
2021/04/15 04:21:41;;;;;;;36.67;23.75;;;9.40;94.30;;;;;;5096354;28;20452;-93
2021/04/15 04:24:14;;;;;;;35.53;21.35;;;9.40;94.20;;;;;;5092127;28;20067;-94
2021/04/15 04:26:47;;;;;;;37.60;23.83;;;9.50;94.20;;;;;;5114633;28;20084;-92
2021/04/15 04:29:32;;;;;;;40.78;23.65;;;9.60;94.10;;;;;;5096640;28;20038;-94
2021/04/15 04:32:02;;;;;;;35.75;21.55;;;9.50;94.20;;;;;;5096325;28;20027;-95
2021/04/15 04:34:30;;;;;;;38.35;23.17;;;9.60;94.10;;;;;;5095151;28;20388;-81
2021/04/15 04:36:57;;;;;;;36.05;21.52;;;9.70;94.10;;;;;;5073764;28;20033;-81
2021/04/15 04:39:26;;;;;;;33.05;21.40;;;9.70;93.90;;;;;;5074468;28;20442;-81
2021/04/15 04:42:25;;;;;;;42.63;26.20;;;9.80;93.90;;;;;;5074618;28;20028;-78
2021/04/15 04:44:57;;;;;;;33.38;20.98;;;9.80;93.90;;;;;;5053750;28;20257;-78
2021/04/15 04:47:45;;;;;;;32.80;20.77;;;9.90;93.80;;;;;;5054155;28;20039;-78
2021/04/15 04:50:23;;;;;;;32.80;19.02;;;10.10;93.70;;;;;;5058830;28;20842;-79
2021/04/15 04:53:00;;;;;;;35.78;21.83;;;10.10;93.40;;;;;;5074910;28;20431;-79
2021/04/15 04:55:44;;;;;;;31.73;19.67;;;10.20;93.40;;;;;;5095738;28;20089;-82
2021/04/15 04:58:15;;;;;;;29.45;18.85;;;10.20;93.40;;;;;;5093098;28;20462;-79
2021/04/15 05:00:50;;;;;;;33.30;21.42;;;10.30;93.40;;;;;;5078438;28;20039;-83
2021/04/15 05:03:25;;;;;;;33.13;20.85;;;10.30;93.20;;;;;;5078492;28;20032;-83
2021/04/15 05:06:03;;;;;;;35.65;22.27;;;10.40;93.50;;;;;;5096522;28;20480;-83
2021/04/15 05:08:49;;;;;;;37.25;22.40;;;10.30;93.10;;;;;;5078360;28;20036;-82
2021/04/15 05:11:14;;;;;;;34.90;22.17;;;10.40;93.10;;;;;;5078139;28;20028;-82
2021/04/15 05:13:41;;;;;;;35.83;21.85;;;10.40;93.00;;;;;;5083251;28;20039;-83
2021/04/15 05:16:07;;;;;;;40.17;24.35;;;10.50;93.00;;;;;;5058562;28;20032;-81
2021/04/15 05:18:33;;;;;;;48.30;30.95;;;10.50;93.00;;;;;;5070127;28;20095;-82
2021/04/15 05:21:22;;;;;;;52.83;31.92;;;10.60;93.10;;;;;;5078319;28;20151;-82
2021/04/15 05:24:20;;;;;;;54.85;32.63;;;10.60;93.20;;;;;;5077990;28;20032;-82
2021/04/15 05:26:47;;;;;;;53.50;31.92;;;10.70;93.10;;;;;;5089155;28;20374;-83
2021/04/15 05:29:18;;;;;;;52.00;31.60;;;10.70;93.10;;;;;;5078649;28;20032;-82
2021/04/15 05:31:46;;;;;;;51.53;29.70;;;10.80;93.10;;;;;;5078816;28;20489;-82
2021/04/15 05:34:38;;;;;;;50.67;29.20;;;10.80;93.00;;;;;;5096911;28;20043;-83
2021/04/15 05:37:07;;;;;;;53.50;31.27;;;10.90;92.90;;;;;;5078470;28;20044;-82
2021/04/15 05:39:35;;;;;;;50.53;28.93;;;10.90;92.90;;;;;;5078505;28;20055;-81
2021/04/15 05:42:07;;;;;;;49.45;29.45;;;10.90;92.80;;;;;;5078520;28;20122;-81
2021/04/15 05:44:46;;;;;;;53.53;30.10;;;11.00;92.70;;;;;;5079155;28;20044;-80
2021/04/15 05:47:23;;;;;;;44.22;29.45;;;11.00;92.60;;;;;;5079830;28;20039;-80
2021/04/15 05:50:06;;;;;;;46.13;29.75;;;11.00;92.60;;;;;;5078532;28;20028;-81
2021/04/15 05:53:00;;;;;;;48.03;30.30;;;11.10;92.70;;;;;;5096284;28;20035;-81
2021/04/15 05:55:38;;;;;;;50.08;27.92;;;11.10;92.60;;;;;;5095694;28;20137;-82
2021/04/15 05:58:08;;;;;;;51.38;31.23;;;11.20;92.50;;;;;;5096201;28;20035;-83
2021/04/15 06:00:54;;;;;;;50.83;31.03;;;11.10;92.50;;;;;;5077226;28;20032;-81
2021/04/15 06:03:25;;;;;;;46.40;27.73;;;11.20;92.60;;;;;;5077941;28;20260;-81
2021/04/15 06:06:05;;;;;;;48.92;30.23;;;11.20;92.50;;;;;;5077848;28;20071;-83
2021/04/15 06:08:35;;;;;;;50.72;29.58;;;11.00;92.60;;;;;;5077849;28;20371;-82
2021/04/15 06:11:29;;;;;;;42.25;24.70;;;11.00;92.90;;;;;;5078044;28;20529;-83
2021/04/15 06:14:02;;;;;;;35.78;24.02;;;10.90;92.70;;;;;;5078304;28;20106;-83
2021/04/15 06:16:35;;;;;;;33.90;20.90;;;11.00;92.70;;;;;;5077868;28;20086;-82
2021/04/15 06:19:21;;;;;;;31.40;20.67;;;11.00;92.60;;;;;;5077620;28;20039;-82
2021/04/15 06:21:51;;;;;;;34.65;20.65;;;11.00;92.60;;;;;;5095454;28;20127;-82
2021/04/15 06:24:23;;;;;;;35.25;20.52;;;11.10;92.50;;;;;;5077716;28;20036;-82
2021/04/15 06:26:53;;;;;;;33.80;21.75;;;11.10;92.50;;;;;;5076883;28;20036;-82
2021/04/15 06:29:26;;;;;;;28.73;19.70;;;11.00;92.40;;;;;;5094931;28;20087;-81
2021/04/15 06:31:56;;;;;;;32.22;20.17;;;11.10;92.40;;;;;;5077007;28;20028;-83
2021/04/15 06:34:23;;;;;;;31.20;20.10;;;11.10;92.30;;;;;;5094753;28;20056;-82
2021/04/15 06:37:28;;;;;;;31.90;19.52;;;11.20;92.30;;;;;;5096416;28;20051;-82
2021/04/15 06:40:00;;;;;;;26.00;18.52;;;11.30;92.20;;;;;;5115384;28;20047;-82
2021/04/15 06:42:28;;;;;;;29.08;19.58;;;11.40;92.20;;;;;;5096783;28;20138;-82
2021/04/15 06:45:18;;;;;;;30.98;19.75;;;11.50;92.00;;;;;;5096845;28;20046;-82
2021/04/15 06:48:08;;;;;;;31.02;18.95;;;11.60;91.90;;;;;;5114922;28;20035;-82
2021/04/15 06:51:14;;;;;;;34.03;20.67;;;11.70;92.00;;;;;;5096491;28;20092;-81
2021/04/15 06:54:08;;;;;;;36.88;22.55;;;11.90;91.80;;;;;;5096907;28;20094;-80
2021/04/15 06:56:56;;;;;;;39.17;25.35;;;12.00;91.60;;;;;;5096676;28;20042;-81
2021/04/15 06:59:53;;;;;;;36.25;23.38;;;12.20;91.20;;;;;;5096422;28;20035;-81
2021/04/15 07:02:51;;;;;;;36.78;21.75;;;12.40;91.10;;;;;;5114893;28;20055;-80
2021/04/15 07:05:28;;;;;;;32.60;20.13;;;12.50;90.60;;;;;;5114530;28;20070;-81
2021/04/15 07:08:08;;;;;;;26.25;17.02;;;12.60;90.50;;;;;;5114647;28;20036;-80
2021/04/15 07:11:05;;;;;;;23.60;16.17;;;12.80;90.30;;;;;;5096174;28;20032;-81
2021/04/15 07:14:05;;;;;;;20.40;14.43;;;12.90;89.70;;;;;;5095753;28;20114;-81
2021/04/15 07:16:49;;;;;;;23.90;14.63;;;12.70;89.00;;;;;;5114782;28;20026;-80
2021/04/15 07:19:48;;;;;;;25.45;17.48;;;12.80;90.00;;;;;;5096129;28;20741;-81
2021/04/15 07:22:41;;;;;;;24.15;16.05;;;12.60;89.70;;;;;;5096325;28;20485;-81
2021/04/15 07:25:42;;;;;;;20.50;15.05;;;12.60;90.10;;;;;;5114702;28;20059;-81
2021/04/15 07:28:36;;;;;;;;;;;12.60;90.00;;;;;;5097098;28;20039;-82
2021/04/15 07:31:17;;;;;;;24.52;15.77;;;12.60;90.00;;;;;;5096696;28;19915;-81
2021/04/15 07:33:54;;;;;;;25.77;17.05;;;12.70;90.00;;;;;;5096472;28;20028;-80
2021/04/15 07:36:49;;;;;;;28.95;18.30;;;12.80;90.10;;;;;;5096499;28;20556;-80
2021/04/15 07:39:48;;;;;;;20.02;15.55;;;12.90;90.00;;;;;;5066293;28;20042;-80
2021/04/15 07:42:40;;;;;;;26.23;18.48;;;13.10;90.10;;;;;;5096767;28;20496;-80
2021/04/15 07:45:30;;;;;;;23.48;15.68;;;13.30;90.00;;;;;;5116369;28;20039;-80
2021/04/15 07:48:37;;;;;;;21.05;15.00;;;13.40;88.30;;;;;;5115837;28;20161;-80
2021/04/15 07:51:34;;;;;;;22.73;15.50;;;13.50;88.90;;;;;;5088277;28;20051;-81
2021/04/15 07:54:24;;;;;;;22.95;17.83;;;13.60;88.20;;;;;;5096263;28;20035;-80
2021/04/15 07:57:30;;;;;;;28.48;18.42;;;13.60;87.80;;;;;;5096276;28;20039;-80
2021/04/15 08:00:16;;;;;;;25.67;17.38;;;13.60;88.00;;;;;;5096265;28;20027;-80
2021/04/15 08:02:57;;;;;;;24.92;17.02;;;13.70;88.20;;;;;;5096220;28;20573;-81
2021/04/15 08:05:31;;;;;;;24.05;17.67;;;13.70;88.10;;;;;;5096111;28;20489;-80
2021/04/15 08:08:16;;;;;;;24.27;16.60;;;13.70;88.00;;;;;;5096274;28;20039;-80
2021/04/15 08:10:51;;;;;;;21.42;14.98;;;13.70;87.90;;;;;;5095990;28;20065;-81
2021/04/15 08:13:48;;;;;;;22.40;15.23;;;13.60;88.00;;;;;;5096052;28;20462;-81
2021/04/15 08:16:26;;;;;;;18.85;12.40;;;13.60;87.90;;;;;;5089985;28;20036;-81
2021/04/15 08:19:06;;;;;;;15.80;11.63;;;13.50;87.80;;;;;;5096131;28;20075;-81
2021/04/15 08:21:57;;;;;;;13.30;8.70;;;13.50;88.10;;;;;;5095986;28;20119;-81
2021/04/15 08:24:28;;;;;;;;;;;13.60;86.50;;;;;;5058133;28;20028;-82
2021/04/15 08:27:13;;;;;;;11.35;6.80;;;13.50;85.60;;;;;;5113337;28;19999;-80
2021/04/15 08:30:10;;;;;;;15.32;8.52;;;13.50;86.40;;;;;;5094898;28;20053;-80
2021/04/15 08:32:48;;;;;;;13.15;9.32;;;13.50;86.30;;;;;;5040347;28;20028;-80
2021/04/15 08:35:49;;;;;;;14.23;9.30;;;13.40;86.10;;;;;;5094890;28;20101;-80
2021/04/15 08:38:26;;;;;;;13.70;8.57;;;13.30;86.40;;;;;;5095072;28;20405;-79
2021/04/15 08:41:07;;;;;;;12.38;8.27;;;13.20;86.30;;;;;;5095100;28;20028;-80
2021/04/15 08:43:41;;;;;;;;;;;13.20;86.90;;;;;;5095434;28;20032;-79
2021/04/15 08:46:12;;;;;;;10.70;7.25;;;13.20;86.70;;;;;;5113558;28;19904;-80
2021/04/15 08:49:11;;;;;;;16.13;8.98;;;13.10;86.00;;;;;;5112974;28;20051;-79
2021/04/15 08:52:14;;;;;;;14.82;10.38;;;13.10;86.50;;;;;;5094860;28;20027;-80
2021/04/15 08:54:56;;;;;;;15.65;10.60;;;13.10;87.10;;;;;;5094732;28;20023;-81
2021/04/15 08:57:37;;;;;;;16.60;8.57;;;13.20;87.30;;;;;;5095139;28;20032;-80
2021/04/15 09:00:09;;;;;;;11.18;7.35;;;13.20;86.80;;;;;;5113111;28;20062;-81
2021/04/15 09:03:10;;;;;;;16.15;9.27;;;13.30;87.20;;;;;;5094985;28;20496;-81
2021/04/15 09:06:15;;;;;;;16.95;9.10;;;13.20;86.00;;;;;;5094767;28;20042;-81
2021/04/15 09:09:04;;;;;;;11.23;8.10;;;13.30;86.60;;;;;;5094682;28;20038;-81
2021/04/15 09:11:30;;;;;;;11.40;8.75;;;13.20;85.40;;;;;;5094957;28;20031;-81
2021/04/15 09:14:18;;;;;;;9.82;8.18;;;13.30;86.50;;;;;;5113004;28;20035;-81
2021/04/15 09:16:53;;;;;;;15.43;7.65;;;13.40;86.30;;;;;;5095099;28;20027;-80
2021/04/15 09:19:48;;;;;;;10.50;6.05;;;13.60;86.00;;;;;;5095306;28;20122;-80
2021/04/15 09:22:28;;;;;;;7.35;6.28;;;13.60;85.50;;;;;;5112345;28;20545;-81
2021/04/15 09:25:02;;;;;;;9.35;6.97;;;13.70;85.30;;;;;;5113257;28;20048;-80
2021/04/15 09:27:52;;;;;;;8.18;7.00;;;13.90;85.10;;;;;;5095290;28;20031;-80
2021/04/15 09:30:46;;;;;;;13.77;9.02;;;14.10;84.40;;;;;;5113759;28;20032;-81
2021/04/15 09:33:49;;;;;;;17.00;9.82;;;14.10;81.20;;;;;;5095341;28;20034;-82
2021/04/15 09:36:27;;;;;;;18.77;11.80;;;14.30;81.80;;;;;;5084582;28;20047;-80
2021/04/15 09:39:10;;;;;;;25.45;12.00;;;14.10;81.50;;;;;;5098978;28;20027;-80
2021/04/15 09:41:57;;;;;;;20.10;11.65;;;14.10;82.40;;;;;;5117393;28;20040;-80
2021/04/15 09:44:36;;;;;;;14.93;10.70;;;14.10;82.60;;;;;;5117639;28;20035;-80
2021/04/15 09:47:18;;;;;;;13.93;9.97;;;14.10;82.70;;;;;;5098907;28;20032;-80
2021/04/15 09:50:10;;;;;;;15.90;10.52;;;14.00;82.60;;;;;;5098492;28;20276;-81
2021/04/15 09:52:51;;;;;;;16.00;11.43;;;14.10;83.10;;;;;;5098796;28;20126;-81
2021/04/15 09:55:22;;;;;;;16.00;10.52;;;14.00;83.00;;;;;;5098588;28;20036;-81
2021/04/15 09:58:21;;;;;;;13.85;10.20;;;14.10;83.10;;;;;;5098562;28;20504;-81
2021/04/15 10:00:54;;;;;;;17.27;10.48;;;14.20;82.60;;;;;;5098433;28;20089;-81
2021/04/15 10:03:39;;;;;;;14.35;10.07;;;14.20;82.60;;;;;;5098320;28;20043;-82
2021/04/15 10:06:20;;;;;;;15.57;11.35;;;14.20;82.50;;;;;;5098427;28;20063;-82
2021/04/15 10:08:55;;;;;;;16.75;11.45;;;14.10;83.20;;;;;;5099078;28;20031;-82
2021/04/15 10:11:27;;;;;;;18.17;11.57;;;14.10;83.20;;;;;;5098940;28;20481;-81
2021/04/15 10:14:44;;;;;;;15.52;10.45;;;14.10;83.10;;;;;;5098264;28;20389;-81
2021/04/15 10:17:19;;;;;;;15.27;10.10;;;13.90;82.40;;;;;;5072406;28;20537;-81
2021/04/15 10:20:11;;;;;;;15.15;10.52;;;14.00;83.40;;;;;;5116612;28;20039;-82
2021/04/15 10:23:22;;;;;;;15.15;11.27;;;13.90;83.00;;;;;;5097967;28;20031;-81
2021/04/15 10:25:57;;;;;;;14.45;10.27;;;13.80;83.30;;;;;;5070157;28;20032;-81
2021/04/15 10:28:56;;;;;;;15.55;11.05;;;13.80;82.90;;;;;;5097505;28;20505;-81
2021/04/15 10:31:53;;;;;;;15.32;11.00;;;13.80;83.10;;;;;;5097092;28;20119;-81
2021/04/15 10:34:27;;;;;;;17.17;11.50;;;13.90;83.30;;;;;;5097334;28;20028;-82
2021/04/15 10:36:52;;;;;;;12.68;10.05;;;13.90;82.90;;;;;;5097197;28;20782;-81
2021/04/15 10:40:02;;;;;;;12.10;9.52;;;14.10;82.90;;;;;;5097190;28;20040;-82
2021/04/15 10:42:58;;;;;;;12.33;9.47;;;14.30;82.00;;;;;;5097012;28;20032;-81
2021/04/15 10:45:55;;;;;;;13.05;9.30;;;14.50;81.70;;;;;;5096551;28;20152;-82
2021/04/15 10:48:43;;;;;;;11.27;8.85;;;14.60;81.10;;;;;;5097039;28;20035;-82
2021/04/15 10:51:28;;;;;;;11.68;8.55;;;14.60;80.20;;;;;;5097013;28;20040;-81
2021/04/15 10:54:17;;;;;;;16.52;8.98;;;14.60;80.40;;;;;;5096960;28;20038;-81
2021/04/15 10:56:48;;;;;;;12.60;9.02;;;14.60;79.90;;;;;;5097302;28;20039;-80
2021/04/15 10:59:27;;;;;;;15.55;9.95;;;14.50;80.20;;;;;;5097468;28;20062;-82
2021/04/15 11:02:17;;;;;;;12.32;10.10;;;14.60;80.40;;;;;;5096637;28;20039;-82
2021/04/15 11:04:43;;;;;;;13.15;9.85;;;14.50;79.90;;;;;;5080799;28;20040;-82
2021/04/15 11:07:14;;;;;;;10.90;8.93;;;14.40;80.40;;;;;;5096255;28;20032;-81
2021/04/15 11:09:43;;;;;;;14.93;9.43;;;14.50;81.20;;;;;;5096174;28;20122;-81
2021/04/15 11:12:16;;;;;;;11.48;9.07;;;14.50;80.50;;;;;;5096416;28;20032;-82
2021/04/15 11:14:45;;;;;;;13.48;9.77;;;14.50;80.40;;;;;;5096382;28;20050;-81
2021/04/15 11:17:27;;;;;;;14.55;11.15;;;14.40;80.80;;;;;;5096425;28;20028;-81
2021/04/15 11:20:15;;;;;;;10.45;8.93;;;14.30;80.70;;;;;;5114404;28;20430;-82
2021/04/15 11:22:51;;;;;;;13.57;10.30;;;14.30;81.00;;;;;;5096066;28;20122;-82
2021/04/15 11:25:26;;;;;;;13.70;9.82;;;14.30;81.30;;;;;;5096469;28;20038;-82
2021/04/15 11:27:52;;;;;;;13.60;9.73;;;14.20;80.90;;;;;;5097288;28;20031;-82
2021/04/15 11:30:38;;;;;;;13.13;9.80;;;14.10;80.80;;;;;;5114930;28;20093;-82
2021/04/15 11:33:06;;;;;;;13.45;10.00;;;14.10;81.40;;;;;;5096803;28;20034;-82
2021/04/15 11:35:32;;;;;;;13.40;10.30;;;14.10;81.70;;;;;;5096543;28;20047;-81
2021/04/15 11:38:19;;;;;;;13.48;9.63;;;14.00;81.90;;;;;;5096816;28;20081;-81
2021/04/15 11:40:52;;;;;;;15.98;11.75;;;14.00;82.10;;;;;;5097696;28;20350;-81
2021/04/15 11:43:26;;;;;;;13.65;10.75;;;14.00;82.20;;;;;;5115033;28;20027;-82
2021/04/15 11:45:54;;;;;;;16.88;12.02;;;14.00;82.60;;;;;;5096489;28;20393;-82
2021/04/15 11:48:22;;;;;;;16.08;11.07;;;14.00;82.80;;;;;;5114857;28;20083;-81
2021/04/15 11:50:51;;;;;;;16.27;10.82;;;13.90;83.10;;;;;;5096888;28;20059;-83
2021/04/15 11:53:36;;;;;;;15.32;10.35;;;13.90;83.10;;;;;;5100285;28;20122;-81
2021/04/15 11:56:24;;;;;;;18.10;11.90;;;13.90;82.90;;;;;;5096662;28;20023;-85
2021/04/15 11:58:52;;;;;;;14.32;10.57;;;13.90;83.20;;;;;;5096125;28;20381;-85
2021/04/15 12:01:31;;;;;;;12.45;9.93;;;13.80;83.40;;;;;;5096611;28;20077;-84
2021/04/15 12:04:00;;;;;;;15.27;9.85;;;13.90;83.60;;;;;;5096489;28;20062;-84
2021/04/15 12:06:34;;;;;;;13.25;9.27;;;13.90;83.50;;;;;;5096306;28;20384;-84
2021/04/15 12:09:03;;;;;;;12.95;9.80;;;14.00;83.50;;;;;;5097549;28;20038;-84
2021/04/15 12:11:34;;;;;;;14.73;10.73;;;14.10;83.30;;;;;;5097135;28;20027;-85
2021/04/15 12:14:02;;;;;;;13.50;10.30;;;14.20;82.90;;;;;;5097873;28;20466;-86
2021/04/15 12:16:50;;;;;;;19.00;9.70;;;14.30;83.00;;;;;;5114730;28;20024;-85
2021/04/15 12:19:20;;;;;;;15.43;10.60;;;14.40;82.50;;;;;;5096144;28;20031;-85
2021/04/15 12:22:06;;;;;;;14.98;10.68;;;14.50;82.70;;;;;;5096209;28;20038;-85
2021/04/15 12:24:48;;;;;;;14.57;10.68;;;14.70;82.60;;;;;;5095873;28;20059;-85
2021/04/15 12:27:22;;;;;;;19.75;11.40;;;14.70;82.10;;;;;;5095537;28;20362;-84
2021/04/15 12:30:16;;;;;;;14.40;9.50;;;14.60;81.70;;;;;;5095463;28;20059;-85
2021/04/15 12:32:56;;;;;;;14.98;10.48;;;14.80;82.30;;;;;;5095680;28;20051;-86
2021/04/15 12:35:52;;;;;;;13.90;10.05;;;14.90;81.90;;;;;;5095317;28;20046;-86
2021/04/15 12:38:27;;;;;;;19.23;9.98;;;15.00;81.00;;;;;;5095281;28;20028;-83
2021/04/15 12:41:01;;;;;;;16.08;10.40;;;15.20;81.40;;;;;;5095311;28;20035;-83
2021/04/15 12:43:30;;;;;;;15.30;10.50;;;15.50;80.70;;;;;;5095145;28;20350;-83
2021/04/15 12:46:03;;;;;;;13.43;9.20;;;15.70;80.20;;;;;;5095138;28;20039;-82
2021/04/15 12:48:43;;;;;;;10.25;8.55;;;15.90;79.30;;;;;;5095169;28;20051;-83
2021/04/15 12:51:13;;;;;;;8.32;6.70;;;15.90;77.80;;;;;;5095093;28;20454;-83
2021/04/15 12:53:41;;;;;;;10.55;7.72;;;15.90;78.80;;;;;;5094953;28;20515;-85
2021/04/15 12:56:09;;;;;;;10.82;7.30;;;16.00;78.60;;;;;;5094721;28;20126;-84
2021/04/15 12:58:36;;;;;;;17.23;8.90;;;16.10;78.90;;;;;;5095120;28;20036;-83
2021/04/15 13:01:02;;;;;;;13.82;9.07;;;16.20;78.40;;;;;;5094869;28;20482;-82
2021/04/15 13:03:34;;;;;;;20.50;10.20;;;16.30;78.20;;;;;;5094913;28;20046;-84
2021/04/15 13:06:11;;;;;;;17.85;10.07;;;16.40;78.10;;;;;;5095101;28;20762;-84
2021/04/15 13:08:41;;;;;;;13.57;10.23;;;16.60;77.00;;;;;;5095436;28;20035;-83
2021/04/15 13:11:26;;;;;;;14.20;11.03;;;16.50;76.40;;;;;;5099003;28;20043;-84
2021/04/15 13:13:56;;;;;;;19.67;12.50;;;16.60;77.30;;;;;;5098190;28;20035;-83
2021/04/15 13:16:34;;;;;;;20.27;13.95;;;16.70;77.20;;;;;;5098958;28;20055;-85
2021/04/15 13:19:23;;;;;;;27.45;15.00;;;16.90;76.80;;;;;;5098754;28;20023;-83
2021/04/15 13:22:00;;;;;;;32.80;16.25;;;16.90;76.40;;;;;;5098916;28;20043;-84
2021/04/15 13:24:46;;;;;;;25.45;15.95;;;16.80;76.80;;;;;;5098891;28;20038;-85
2021/04/15 13:27:37;;;;;;;28.70;15.05;;;16.70;76.30;;;;;;5099533;28;20066;-82
2021/04/15 13:30:14;;;;;;;32.63;14.77;;;16.60;76.50;;;;;;5099046;28;20126;-83
2021/04/15 13:33:13;;;;;;;24.85;14.80;;;16.60;76.70;;;;;;5099145;28;20089;-82
2021/04/15 13:35:53;;;;;;;21.85;15.10;;;16.60;76.80;;;;;;5117231;28;20121;-82